Time;durP1;ratioP1;P1;durP2;ratioP2;P2;SDS_P1;SDS_P2;PMS_P1;PMS_P2;Temp;Humidity;BMP_temperature;BMP_pressure;BME280_temperature;BME280_humidity;BME280_pressure;Samples;Min_cycle;Max_cycle;Signal;HPM_P1;HPM_P2
2023/03/07 00:01:43;;;;;;;21.75;12.98;;;;;;;10.19;73.49;100891.19;5035035;28;20024;-86
2023/03/07 00:04:08;;;;;;;19.45;12.52;;;;;;;10.35;73.67;100919.13;5069545;28;20035;-86
2023/03/07 00:06:34;;;;;;;19.85;12.45;;;;;;;10.40;73.16;100940.25;5068992;28;20236;-85
2023/03/07 00:09:00;;;;;;;21.33;13.38;;;;;;;10.56;73.33;100965.50;5068322;28;20485;-86
2023/03/07 00:11:27;;;;;;;23.15;13.45;;;;;;;10.57;73.75;100970.81;5052060;28;20032;-85
2023/03/07 00:13:53;;;;;;;19.33;12.15;;;;;;;10.42;73.59;100940.34;5051882;28;20028;-83
2023/03/07 00:16:21;;;;;;;19.88;12.23;;;;;;;10.57;73.46;100957.78;5069434;28;20448;-87
2023/03/07 00:18:47;;;;;;;20.15;12.55;;;;;;;10.54;73.65;100949.78;5058862;28;20032;-87
2023/03/07 00:21:15;;;;;;;20.00;12.88;;;;;;;10.47;73.47;100926.72;5056586;28;20039;-87
2023/03/07 00:23:42;;;;;;;22.02;13.68;;;;;;;10.48;73.47;100933.75;5056612;28;20020;-85
2023/03/07 00:26:14;;;;;;;19.80;13.00;;;;;;;10.52;73.41;100935.75;5037863;28;20072;-87
2023/03/07 00:28:40;;;;;;;18.08;12.20;;;;;;;10.51;73.38;100936.53;5055607;28;20016;-86
2023/03/07 00:31:08;;;;;;;20.10;12.88;;;;;;;10.12;73.11;100860.34;5073409;28;20469;-87
2023/03/07 00:33:34;;;;;;;20.95;12.65;;;;;;;10.48;73.55;100914.59;5055249;28;20032;-87
2023/03/07 00:36:03;;;;;;;19.92;12.57;;;;;;;10.22;73.67;100866.97;5072866;28;20086;-87
2023/03/07 00:38:30;;;;;;;18.10;12.23;;;;;;;10.23;73.49;100871.41;5054702;28;20078;-87
2023/03/07 00:41:06;;;;;;;18.33;11.80;;;;;;;10.43;73.59;100909.09;5055015;28;20059;-87
2023/03/07 00:43:32;;;;;;;18.40;12.37;;;;;;;10.35;73.65;100895.63;5071823;28;20098;-87
2023/03/07 00:45:58;;;;;;;;;;;;;;;10.59;73.24;100931.75;5070145;28;20282;-87
2023/03/07 00:48:25;;;;;;;19.35;12.35;;;;;;;10.50;73.58;100924.31;5067796;28;20358;-86
2023/03/07 00:50:51;;;;;;;20.95;13.02;;;;;;;10.48;73.50;100925.03;5054760;28;20028;-86
2023/03/07 00:53:17;;;;;;;19.67;12.48;;;;;;;10.50;73.58;100912.97;5050592;28;20412;-86
2023/03/07 00:55:56;;;;;;;20.92;12.93;;;;;;;10.51;73.63;100914.75;5047616;28;20028;-86
2023/03/07 00:58:21;;;;;;;18.88;11.80;;;;;;;10.07;73.77;100838.28;5053734;28;20036;-86
2023/03/07 01:00:47;;;;;;;20.90;12.52;;;;;;;10.37;73.61;100880.03;5072407;28;20032;-86
2023/03/07 01:03:12;;;;;;;18.27;12.23;;;;;;;10.45;73.53;100899.63;5054873;28;20029;-86
2023/03/07 01:05:39;;;;;;;17.40;11.00;;;;;;;10.51;73.28;100901.69;5072079;28;20036;-85
2023/03/07 01:08:07;;;;;;;;;;;;;;;10.54;73.50;100894.94;5064478;28;20033;-85
2023/03/07 01:10:33;;;;;;;17.88;11.30;;;;;;;10.18;73.20;100841.50;5054162;28;19912;-86
2023/03/07 01:13:00;;;;;;;18.00;11.82;;;;;;;10.33;73.46;100865.03;5055322;28;20032;-86
2023/03/07 01:15:26;;;;;;;18.83;12.20;;;;;;;10.19;73.51;100840.72;5053942;28;20070;-87
2023/03/07 01:17:52;;;;;;;21.00;12.15;;;;;;;10.16;73.50;100827.50;5054703;28;20047;-86
2023/03/07 01:20:18;;;;;;;19.65;12.05;;;;;;;10.45;73.30;100888.28;5051264;28;20033;-86
2023/03/07 01:22:44;;;;;;;17.65;11.82;;;;;;;10.27;73.52;100851.59;5052347;28;20036;-86
2023/03/07 01:25:10;;;;;;;18.10;11.65;;;;;;;10.26;73.57;100847.16;5054652;28;20044;-86
2023/03/07 01:27:36;;;;;;;17.95;11.60;;;;;;;10.21;73.69;100831.25;5034883;28;20028;-86
2023/03/07 01:30:03;;;;;;;17.15;11.70;;;;;;;10.36;73.71;100860.84;5050402;28;20394;-86
2023/03/07 01:32:28;;;;;;;18.92;11.73;;;;;;;10.43;73.57;100875.16;5050823;28;20044;-86
2023/03/07 01:34:54;;;;;;;19.02;11.90;;;;;;;10.35;73.50;100871.19;5038829;28;20418;-86
2023/03/07 01:37:19;;;;;;;17.38;12.07;;;;;;;10.19;73.24;100849.44;5053946;28;20086;-87
2023/03/07 01:39:45;;;;;;;20.33;12.20;;;;;;;10.32;73.62;100871.03;5063203;28;20573;-86
2023/03/07 01:42:10;;;;;;;18.13;11.60;;;;;;;10.25;73.74;100856.72;5071888;28;20112;-85
2023/03/07 01:45:01;;;;;;;20.80;12.15;;;;;;;10.44;73.73;100884.78;5053430;28;20059;-86
2023/03/07 01:47:27;;;;;;;21.70;12.23;;;;;;;10.12;73.32;100826.41;5053486;28;20530;-85
2023/03/07 01:49:53;;;;;;;19.42;12.43;;;;;;;10.40;73.81;100877.59;5054949;28;20115;-85
2023/03/07 01:52:27;;;;;;;19.02;12.65;;;;;;;10.41;73.39;100873.28;5066951;28;20036;-85
2023/03/07 01:54:59;;;;;;;18.40;11.93;;;;;;;10.13;73.82;100835.13;5052496;28;20031;-86
2023/03/07 01:57:34;;;;;;;18.40;12.23;;;;;;;10.16;73.67;100841.44;5055863;28;20036;-85
2023/03/07 02:00:06;;;;;;;20.50;11.75;;;;;;;10.33;73.45;100855.47;5062666;28;20032;-86
2023/03/07 02:02:32;;;;;;;18.77;11.90;;;;;;;10.41;73.72;100875.88;5064564;28;20478;-86
2023/03/07 02:05:10;;;;;;;;;;;;;;;10.45;73.64;100872.63;5070832;28;20024;-86
2023/03/07 02:07:47;;;;;;;15.95;10.82;;;;;;;10.43;73.59;100882.09;5056151;28;19912;-85
2023/03/07 02:10:14;;;;;;;17.20;11.05;;;;;;;10.32;73.56;100868.44;5043003;28;20040;-89
2023/03/07 02:12:40;;;;;;;;;;;;;;;10.38;73.88;100872.28;5053631;28;20555;-87
2023/03/07 02:15:08;;;;;;;17.33;11.20;;;;;;;10.32;73.74;100866.72;5035169;28;19912;-86
2023/03/07 02:17:34;;;;;;;20.92;12.18;;;;;;;10.39;73.30;100868.88;5048676;28;20029;-86
2023/03/07 02:20:17;;;;;;;17.33;11.18;;;;;;;10.28;73.61;100861.22;5069473;28;20157;-87
2023/03/07 02:22:42;;;;;;;16.48;10.63;;;;;;;10.25;73.61;100848.00;5031378;28;20494;-86
2023/03/07 02:25:19;;;;;;;16.80;11.70;;;;;;;10.37;73.61;100873.13;5053127;28;20150;-86
2023/03/07 02:27:46;;;;;;;17.13;11.07;;;;;;;10.29;73.42;100865.63;5062089;28;20036;-87
2023/03/07 02:30:11;;;;;;;17.55;11.45;;;;;;;10.07;73.69;100817.41;5052841;28;20028;-85
2023/03/07 02:32:37;;;;;;;18.98;11.35;;;;;;;10.11;73.66;100834.16;5071430;28;20103;-86
2023/03/07 02:35:12;;;;;;;16.88;11.35;;;;;;;10.25;73.30;100859.34;5068117;28;20467;-86
2023/03/07 02:37:38;;;;;;;17.77;11.30;;;;;;;10.29;73.75;100853.50;5068751;28;20029;-86
2023/03/07 02:40:10;;;;;;;15.60;10.70;;;;;;;9.99;73.34;100808.28;5069324;28;20082;-86
2023/03/07 02:42:38;;;;;;;18.05;10.88;;;;;;;10.03;73.89;100818.06;5065239;28;20031;-86
2023/03/07 02:45:07;;;;;;;17.30;11.23;;;;;;;10.37;73.66;100870.50;5045550;28;20028;-86
2023/03/07 02:47:32;;;;;;;17.02;11.20;;;;;;;10.18;73.92;100842.44;5066045;28;20029;-85
2023/03/07 02:49:58;;;;;;;19.55;11.20;;;;;;;10.23;73.64;100852.22;5048506;28;20086;-86
2023/03/07 02:52:42;;;;;;;17.48;11.25;;;;;;;10.21;73.78;100843.41;5035944;28;20078;-86
2023/03/07 02:55:08;;;;;;;16.42;10.63;;;;;;;9.88;73.75;100796.31;5070652;28;20032;-86
2023/03/07 02:57:34;;;;;;;17.02;10.73;;;;;;;10.07;73.63;100819.13;5051692;28;20036;-86
2023/03/07 03:00:03;;;;;;;;;;;;;;;10.34;73.79;100867.69;5042215;28;20055;-86
2023/03/07 03:02:29;;;;;;;16.30;10.55;;;;;;;10.07;73.50;100819.13;5048393;28;19920;-87
2023/03/07 03:04:55;;;;;;;16.55;11.00;;;;;;;9.84;73.66;100774.41;5053759;28;20131;-87
2023/03/07 03:07:20;;;;;;;17.15;11.38;;;;;;;9.95;73.47;100802.00;5069089;28;20028;-87
2023/03/07 03:09:46;;;;;;;15.98;10.52;;;;;;;10.09;73.65;100818.41;5065643;28;20043;-86
2023/03/07 03:12:11;;;;;;;20.77;11.52;;;;;;;10.32;74.12;100869.31;5052600;28;20039;-87
2023/03/07 03:14:37;;;;;;;16.27;11.05;;;;;;;10.19;73.28;100839.00;5069549;28;20119;-86
2023/03/07 03:17:02;;;;;;;15.10;10.20;;;;;;;10.30;73.69;100851.78;5069566;28;20489;-87
2023/03/07 03:19:28;;;;;;;16.83;10.98;;;;;;;10.10;73.72;100824.53;5070749;28;20058;-86
2023/03/07 03:21:54;;;;;;;16.92;11.52;;;;;;;10.18;73.64;100837.22;5052957;28;20032;-86
2023/03/07 03:24:19;;;;;;;17.45;10.75;;;;;;;10.07;74.02;100825.25;5053978;28;20047;-86
2023/03/07 03:26:45;;;;;;;16.25;10.60;;;;;;;9.86;73.66;100774.47;5052176;28;20512;-84
2023/03/07 03:29:10;;;;;;;14.85;10.23;;;;;;;9.83;73.83;100779.53;5070448;28;20055;-86
2023/03/07 03:31:36;;;;;;;17.27;10.60;;;;;;;10.15;73.59;100830.91;5067768;28;20029;-86
2023/03/07 03:34:03;;;;;;;16.23;11.10;;;;;;;10.17;73.88;100837.13;5049619;28;20290;-86
2023/03/07 03:36:29;;;;;;;15.27;10.32;;;;;;;9.81;73.44;100766.38;5035303;28;20028;-86
2023/03/07 03:38:56;;;;;;;16.25;10.57;;;;;;;10.29;73.86;100849.97;5051498;28;20471;-86
2023/03/07 03:41:22;;;;;;;15.85;10.60;;;;;;;10.19;73.79;100835.50;5068250;28;20478;-86
2023/03/07 03:43:47;;;;;;;16.35;10.52;;;;;;;10.04;73.86;100817.25;5035487;28;20086;-85
2023/03/07 03:46:13;;;;;;;16.08;10.48;;;;;;;10.15;73.65;100837.03;5065555;28;20055;-87
2023/03/07 03:48:39;;;;;;;15.20;10.15;;;;;;;9.97;73.88;100805.59;5043150;28;20107;-87
2023/03/07 03:51:07;;;;;;;16.48;10.65;;;;;;;10.25;73.99;100856.72;5051151;28;20064;-87
2023/03/07 03:53:35;;;;;;;15.82;10.48;;;;;;;10.01;73.61;100819.66;5070496;28;20027;-87
2023/03/07 03:56:12;;;;;;;16.10;10.23;;;;;;;10.23;73.77;100850.50;5054466;28;20028;-87
2023/03/07 03:58:39;;;;;;;15.27;10.35;;;;;;;9.86;73.96;100790.13;5051834;28;20095;-88
2023/03/07 04:01:07;;;;;;;15.65;10.57;;;;;;;10.22;73.60;100847.81;5054096;28;20511;-87
2023/03/07 04:03:34;;;;;;;14.70;9.88;;;;;;;10.15;73.99;100833.53;5070698;28;20032;-88
2023/03/07 04:06:01;;;;;;;15.88;10.23;;;;;;;10.02;74.16;100818.88;5053773;28;20029;-87
2023/03/07 04:08:27;;;;;;;17.10;10.38;;;;;;;10.17;73.88;100831.91;5039059;28;20478;-87
2023/03/07 04:10:53;;;;;;;16.35;10.93;;;;;;;10.11;73.88;100836.75;5073426;28;20032;-87
2023/03/07 04:13:19;;;;;;;16.52;10.45;;;;;;;10.03;74.01;100811.94;5057545;28;20032;-87
2023/03/07 04:15:45;;;;;;;15.48;10.23;;;;;;;9.98;73.78;100809.97;5052719;28;20021;-87
2023/03/07 04:18:11;;;;;;;15.20;9.70;;;;;;;10.09;74.09;100834.06;5067619;28;20119;-87
2023/03/07 04:20:37;;;;;;;16.55;10.70;;;;;;;10.18;73.97;100847.66;5073205;28;20174;-87
2023/03/07 04:23:04;;;;;;;15.90;10.57;;;;;;;9.91;74.06;100794.78;5051567;28;20031;-87
2023/03/07 04:25:29;;;;;;;15.10;9.93;;;;;;;10.16;73.74;100836.22;5071797;28;20048;-88
2023/03/07 04:27:55;;;;;;;15.68;10.20;;;;;;;10.07;73.98;100825.25;5052572;28;20517;-87
2023/03/07 04:30:20;;;;;;;15.98;10.23;;;;;;;9.82;74.05;100793.34;5056063;28;20409;-88
2023/03/07 04:32:46;;;;;;;16.25;10.23;;;;;;;9.89;73.77;100804.25;5054488;28;20044;-87
2023/03/07 04:35:12;;;;;;;15.90;10.50;;;;;;;9.86;73.66;100792.72;5070943;28;20031;-89
2023/03/07 04:37:38;;;;;;;15.65;10.27;;;;;;;10.18;74.08;100846.72;5071208;28;20082;-88
2023/03/07 04:40:04;;;;;;;14.98;10.18;;;;;;;10.06;74.03;100827.78;5056037;28;20489;-90
2023/03/07 04:42:30;;;;;;;15.75;10.25;;;;;;;10.05;74.05;100821.66;5055456;28;20067;-87
2023/03/07 04:44:55;;;;;;;15.15;9.77;;;;;;;9.99;73.93;100817.00;5055898;28;20040;-87
2023/03/07 04:47:21;;;;;;;16.20;10.50;;;;;;;9.85;73.68;100796.16;5055677;28;20025;-87
2023/03/07 04:49:46;;;;;;;16.92;10.52;;;;;;;10.08;73.82;100821.84;5073729;28;20473;-85
2023/03/07 04:52:12;;;;;;;14.27;10.00;;;;;;;9.98;74.02;100803.88;5071988;28;20032;-86
2023/03/07 04:54:39;;;;;;;17.55;10.77;;;;;;;9.85;73.89;100786.63;5068731;28;20029;-86
2023/03/07 04:57:05;;;;;;;15.02;10.10;;;;;;;9.87;74.04;100795.44;5052788;28;20040;-86
2023/03/07 04:59:35;;;;;;;14.75;10.43;;;;;;;9.98;74.07;100820.41;5055543;28;20508;-88
2023/03/07 05:02:00;;;;;;;15.13;10.23;;;;;;;10.16;73.90;100846.66;5060608;28;20032;-85
2023/03/07 05:04:26;;;;;;;15.15;10.00;;;;;;;9.95;73.71;100816.75;5045871;28;20040;-85
2023/03/07 05:06:51;;;;;;;15.90;10.27;;;;;;;9.92;73.90;100809.63;5066942;28;20109;-86
2023/03/07 05:09:17;;;;;;;15.90;10.25;;;;;;;10.05;73.95;100825.97;5071777;28;20108;-87
2023/03/07 05:11:43;;;;;;;15.40;10.23;;;;;;;9.81;73.65;100789.84;5049849;28;20561;-86
2023/03/07 05:14:08;;;;;;;15.80;10.57;;;;;;;10.15;74.05;100844.84;5067396;28;20497;-86
2023/03/07 05:16:34;;;;;;;17.10;11.15;;;;;;;9.90;73.81;100813.84;5052574;28;20032;-86
2023/03/07 05:19:00;;;;;;;15.30;10.02;;;;;;;10.11;73.80;100855.91;5048690;28;20357;-86
2023/03/07 05:21:25;;;;;;;16.10;10.48;;;;;;;10.05;74.08;100841.63;5039926;28;20041;-86
2023/03/07 05:23:51;;;;;;;15.70;10.43;;;;;;;10.13;74.45;100856.91;5066107;28;20035;-86
2023/03/07 05:26:16;;;;;;;14.32;9.63;;;;;;;9.92;74.28;100824.38;5035628;28;20041;-86
2023/03/07 05:28:42;;;;;;;17.40;10.88;;;;;;;10.00;74.17;100841.38;5039189;28;20487;-86
2023/03/07 05:31:08;;;;;;;15.85;11.10;;;;;;;10.00;73.81;100838.75;5050624;28;20021;-87
2023/03/07 05:33:33;;;;;;;16.85;11.00;;;;;;;10.09;74.08;100859.25;5049457;28;20029;-86
2023/03/07 05:36:00;;;;;;;16.88;10.77;;;;;;;9.97;74.08;100843.81;5048704;28;20498;-86
2023/03/07 05:38:26;;;;;;;15.80;10.18;;;;;;;10.11;74.08;100871.56;5048115;28;20037;-87
2023/03/07 05:40:52;;;;;;;19.38;10.88;;;;;;;9.85;74.05;100817.91;5046444;28;20421;-87
2023/03/07 05:43:17;;;;;;;15.35;10.02;;;;;;;9.80;73.90;100808.94;5038748;28;20037;-86
2023/03/07 05:45:43;;;;;;;15.40;10.30;;;;;;;9.82;73.99;100825.56;5049768;28;20032;-87
2023/03/07 05:48:08;;;;;;;15.65;10.65;;;;;;;9.72;74.16;100805.88;5049655;28;20037;-88
2023/03/07 05:50:37;;;;;;;15.90;9.82;;;;;;;10.08;74.42;100860.97;5046389;28;20029;-88
2023/03/07 05:53:03;;;;;;;16.10;10.43;;;;;;;9.95;74.42;100848.94;5042934;28;20032;-88
2023/03/07 05:55:28;;;;;;;;;;;;;;;10.06;74.08;100872.16;5050432;28;20056;-88
2023/03/07 05:57:54;;;;;;;15.85;10.38;;;;;;;9.86;74.54;100842.28;5048436;28;19964;-88
2023/03/07 06:00:20;;;;;;;15.07;9.77;;;;;;;9.68;74.40;100822.16;5059919;28;20108;-85
2023/03/07 06:02:46;;;;;;;14.57;10.13;;;;;;;10.04;74.57;100871.16;5045112;28;20045;-90
2023/03/07 06:05:13;;;;;;;15.25;9.85;;;;;;;9.94;74.60;100875.81;5045763;28;20098;-94
2023/03/07 06:07:39;;;;;;;15.85;10.02;;;;;;;9.92;74.40;100867.00;5050800;28;20406;-92
2023/03/07 06:10:06;;;;;;;16.77;10.43;;;;;;;9.89;74.40;100865.94;5050051;28;20032;-92
2023/03/07 06:12:33;;;;;;;14.57;10.02;;;;;;;9.60;74.34;100814.69;5044834;28;20048;-92
2023/03/07 06:14:58;;;;;;;16.42;10.27;;;;;;;9.70;74.63;100833.56;5055047;28;20033;-90
2023/03/07 06:17:25;;;;;;;15.10;9.88;;;;;;;9.55;74.64;100809.22;5031667;28;20033;-90
2023/03/07 06:19:51;;;;;;;15.98;10.15;;;;;;;9.85;74.39;100864.88;5045376;28;20024;-90
2023/03/07 06:22:17;;;;;;;16.13;10.40;;;;;;;10.02;74.57;100891.03;5038229;28;20025;-91
2023/03/07 06:24:43;;;;;;;16.50;10.73;;;;;;;9.99;74.47;100895.25;5049026;28;20126;-91
2023/03/07 06:27:11;;;;;;;15.75;10.27;;;;;;;10.00;74.63;100896.16;5051877;28;20067;-89
2023/03/07 06:29:37;;;;;;;17.23;10.60;;;;;;;9.84;74.38;100862.16;5052353;28;20517;-89
2023/03/07 06:32:03;;;;;;;14.95;10.02;;;;;;;9.71;74.17;100852.72;5034830;28;20113;-89
2023/03/07 06:34:30;;;;;;;;;;;;;;;9.99;74.60;100895.25;5050901;28;20040;-89
2023/03/07 06:36:58;;;;;;;13.48;9.48;;;;;;;9.83;74.69;100866.47;5053664;28;19920;-89
2023/03/07 06:39:25;;;;;;;16.48;10.52;;;;;;;9.74;74.67;100852.91;5054227;28;20051;-88
2023/03/07 06:41:51;;;;;;;15.32;10.07;;;;;;;9.90;74.62;100883.38;5054047;28;20021;-89
2023/03/07 06:44:17;;;;;;;14.45;9.98;;;;;;;9.82;74.61;100861.16;5042759;28;20034;-88
2023/03/07 06:46:45;;;;;;;14.82;10.02;;;;;;;9.67;74.79;100845.53;5053857;28;20050;-89
2023/03/07 06:49:12;;;;;;;15.15;9.60;;;;;;;9.78;74.60;100867.94;5054566;28;20048;-89
2023/03/07 06:51:39;;;;;;;17.50;10.55;;;;;;;9.92;74.71;100898.31;5054341;28;20028;-89
2023/03/07 06:54:06;;;;;;;15.93;10.38;;;;;;;9.92;74.36;100890.47;5071588;28;20029;-88
2023/03/07 06:56:34;;;;;;;14.98;9.98;;;;;;;9.78;74.70;100874.03;5071669;28;20032;-89
2023/03/07 06:58:59;;;;;;;14.43;9.68;;;;;;;9.86;74.74;100890.13;5054249;28;20024;-90
2023/03/07 07:01:25;;;;;;;17.73;10.27;;;;;;;9.96;74.57;100897.69;5054037;28;20025;-90
2023/03/07 07:03:52;;;;;;;16.50;10.45;;;;;;;9.86;74.67;100871.84;5037280;28;20032;-90
2023/03/07 07:06:19;;;;;;;14.63;9.50;;;;;;;9.96;74.58;100900.28;5071889;28;20036;-89
2023/03/07 07:08:46;;;;;;;15.00;9.85;;;;;;;9.99;74.29;100897.88;5053850;28;20027;-90
2023/03/07 07:11:13;;;;;;;17.17;10.15;;;;;;;9.99;74.24;100902.19;5053934;28;20024;-89
2023/03/07 07:13:40;;;;;;;14.00;9.82;;;;;;;9.83;74.46;100873.41;5054041;28;20522;-90
2023/03/07 07:16:07;;;;;;;16.50;10.38;;;;;;;9.90;74.79;100876.44;5054167;28;20101;-90
2023/03/07 07:18:37;;;;;;;14.35;9.32;;;;;;;9.82;74.72;100864.69;5035606;28;20027;-90
2023/03/07 07:21:10;;;;;;;16.35;9.90;;;;;;;9.89;74.87;100892.94;5064241;28;20107;-90
2023/03/07 07:23:41;;;;;;;13.77;9.43;;;;;;;9.85;74.90;100890.94;5061007;28;20021;-91
2023/03/07 07:26:07;;;;;;;13.18;9.45;;;;;;;9.94;74.65;100893.19;5053650;28;20045;-90
2023/03/07 07:28:34;;;;;;;14.40;9.90;;;;;;;9.77;75.02;100872.22;5035487;28;20032;-89
2023/03/07 07:30:59;;;;;;;14.30;9.55;;;;;;;9.92;74.84;100893.09;5044991;28;20029;-89
2023/03/07 07:33:25;;;;;;;14.30;9.85;;;;;;;9.89;74.98;100884.22;5053540;28;20032;-90
2023/03/07 07:35:51;;;;;;;14.48;9.70;;;;;;;9.84;75.10;100872.59;5053299;28;20047;-88
2023/03/07 07:38:16;;;;;;;14.90;9.45;;;;;;;9.53;74.76;100816.06;5053148;28;20052;-90
2023/03/07 07:40:43;;;;;;;15.73;9.75;;;;;;;9.76;74.90;100864.34;5061730;28;20035;-90
2023/03/07 07:43:15;;;;;;;13.68;9.25;;;;;;;9.94;74.75;100890.59;5036815;28;20028;-89
2023/03/07 07:45:40;;;;;;;13.82;9.15;;;;;;;9.57;74.79;100831.97;5053493;28;20101;-89
2023/03/07 07:48:06;;;;;;;14.32;9.40;;;;;;;9.72;74.68;100850.22;5056463;28;20024;-90
2023/03/07 07:50:33;;;;;;;14.27;9.77;;;;;;;9.97;74.52;100886.44;5066361;28;20033;-90
2023/03/07 07:52:59;;;;;;;13.85;9.60;;;;;;;10.02;74.55;100893.66;5053321;28;20410;-89
2023/03/07 07:55:31;;;;;;;14.30;9.57;;;;;;;9.95;74.81;100887.19;5036590;28;20032;-90
2023/03/07 07:57:58;;;;;;;15.25;9.77;;;;;;;9.81;75.25;100873.31;5053447;28;20477;-89
2023/03/07 08:00:24;;;;;;;15.45;9.75;;;;;;;9.84;74.86;100862.16;5053346;28;20033;-89
2023/03/07 08:02:50;;;;;;;13.90;9.57;;;;;;;9.93;75.12;100884.47;5053233;28;20035;-89
2023/03/07 08:05:17;;;;;;;14.77;9.48;;;;;;;9.94;75.05;100886.25;5053191;28;20484;-89
2023/03/07 08:07:43;;;;;;;14.88;9.75;;;;;;;9.94;75.02;100885.38;5052785;28;20025;-89
2023/03/07 08:10:12;;;;;;;13.75;9.35;;;;;;;9.81;74.80;100856.78;5052550;28;20039;-89
2023/03/07 08:12:37;;;;;;;14.45;9.93;;;;;;;9.97;74.63;100876.00;5053105;28;20105;-89
2023/03/07 08:15:04;;;;;;;13.48;9.75;;;;;;;9.80;74.93;100845.44;5053184;28;20444;-87
2023/03/07 08:17:30;;;;;;;12.88;8.77;;;;;;;9.95;74.85;100876.75;5053063;28;20044;-87
2023/03/07 08:20:00;;;;;;;13.30;9.50;;;;;;;9.83;74.92;100852.56;5071161;28;20028;-90
2023/03/07 08:22:26;;;;;;;14.70;9.52;;;;;;;9.72;74.96;100836.28;5062036;28;20096;-89
2023/03/07 08:24:52;;;;;;;14.23;9.40;;;;;;;9.98;74.92;100882.13;5047276;28;20029;-88
2023/03/07 08:27:18;;;;;;;13.45;9.32;;;;;;;9.74;74.93;100824.22;5049784;28;20043;-89
2023/03/07 08:29:48;;;;;;;13.95;8.98;;;;;;;9.86;74.90;100852.72;5044112;28;20135;-89
2023/03/07 08:32:14;;;;;;;13.98;9.43;;;;;;;9.96;74.78;100868.97;5041537;28;20025;-89
2023/03/07 08:34:40;;;;;;;14.73;9.25;;;;;;;9.96;74.71;100861.16;5053636;28;20051;-88
2023/03/07 08:37:05;;;;;;;13.73;9.30;;;;;;;10.01;74.81;100874.47;5053207;28;20032;-89
2023/03/07 08:39:31;;;;;;;12.57;8.93;;;;;;;10.01;74.66;100863.13;5051714;28;20550;-89
2023/03/07 08:41:56;;;;;;;12.70;9.25;;;;;;;9.96;74.79;100847.22;5029188;28;20035;-88
2023/03/07 08:44:23;;;;;;;13.85;9.30;;;;;;;9.92;74.90;100840.91;5038851;28;20029;-89
2023/03/07 08:46:48;;;;;;;12.77;9.27;;;;;;;9.73;74.80;100814.59;5056799;28;20032;-88
2023/03/07 08:49:15;;;;;;;14.60;9.10;;;;;;;10.00;74.68;100854.41;5074457;28;20520;-91
2023/03/07 08:51:45;;;;;;;12.88;8.77;;;;;;;9.70;74.91;100804.00;5074758;28;20640;-90
2023/03/07 08:54:12;;;;;;;14.38;9.48;;;;;;;9.78;74.92;100814.06;5056409;28;20524;-90
2023/03/07 08:56:38;;;;;;;13.50;9.20;;;;;;;9.92;74.91;100827.00;5056576;28;20033;-90
2023/03/07 08:59:04;;;;;;;13.95;9.73;;;;;;;10.09;74.61;100859.25;5073232;28;20024;-90
2023/03/07 09:01:33;;;;;;;14.35;9.85;;;;;;;10.02;74.97;100854.50;5056854;28;20405;-90
2023/03/07 09:03:59;;;;;;;13.27;8.88;;;;;;;9.82;75.03;100809.00;5056483;28;20016;-90
2023/03/07 09:06:24;;;;;;;13.07;9.05;;;;;;;10.01;74.64;100847.47;5056637;28;20031;-89
2023/03/07 09:08:51;;;;;;;14.05;9.68;;;;;;;10.05;74.81;100839.03;5056462;28;20028;-90
2023/03/07 09:11:17;;;;;;;13.88;8.80;;;;;;;10.00;74.72;100841.38;5056386;28;20028;-90
2023/03/07 09:13:44;;;;;;;12.75;9.10;;;;;;;9.88;74.82;100819.78;5058538;28;20020;-90
2023/03/07 09:16:09;;;;;;;12.90;8.68;;;;;;;9.57;75.19;100769.41;5056048;28;20032;-90
2023/03/07 09:18:37;;;;;;;13.27;9.07;;;;;;;9.93;75.22;100828.81;5055873;28;20471;-90
2023/03/07 09:21:09;;;;;;;13.32;9.52;;;;;;;10.08;74.74;100845.31;5056077;28;20032;-90
2023/03/07 09:23:36;;;;;;;14.75;9.13;;;;;;;9.95;74.54;100807.19;5073995;28;20073;-90
2023/03/07 09:26:03;;;;;;;13.45;8.77;;;;;;;10.11;74.55;100834.16;5056025;28;20044;-90
2023/03/07 09:28:29;;;;;;;14.00;9.02;;;;;;;9.97;74.83;100826.44;5056535;28;20024;-90
2023/03/07 09:30:56;;;;;;;13.90;9.07;;;;;;;10.05;75.01;100834.69;5028929;28;20115;-91
2023/03/07 09:33:24;;;;;;;14.15;9.55;;;;;;;9.93;74.51;100800.09;5071601;28;20685;-90
2023/03/07 09:35:50;;;;;;;14.32;9.43;;;;;;;10.02;74.60;100804.94;5056234;28;20024;-90
2023/03/07 09:38:17;;;;;;;14.25;9.48;;;;;;;10.04;74.85;100830.31;5072810;28;20094;-91
2023/03/07 09:40:46;;;;;;;14.48;9.45;;;;;;;9.92;75.16;100814.84;5044062;28;20468;-90
2023/03/07 09:43:20;;;;;;;13.90;9.27;;;;;;;10.08;74.81;100834.88;5071900;28;20544;-89
2023/03/07 09:46:29;;;;;;;12.93;8.77;;;;;;;10.15;74.63;100839.63;5072558;28;20383;-90
2023/03/07 09:49:01;;;;;;;14.55;9.50;;;;;;;10.14;75.07;100831.75;5055666;28;20367;-90
2023/03/07 09:51:36;;;;;;;16.38;10.00;;;;;;;10.14;74.81;100835.25;5055312;28;20032;-90
2023/03/07 09:54:23;;;;;;;14.90;9.60;;;;;;;10.12;74.99;100829.03;5073884;28;20116;-91
2023/03/07 09:56:59;;;;;;;;;;;;;;;10.18;74.45;100828.47;5056794;28;20025;-90
2023/03/07 09:59:38;;;;;;;12.88;9.10;;;;;;;9.93;75.09;100792.28;5038805;28;19999;-89
2023/03/07 10:02:26;;;;;;;13.02;8.88;;;;;;;10.14;74.70;100821.31;5055247;28;20521;-90
2023/03/07 10:05:04;;;;;;;12.55;8.95;;;;;;;10.13;75.03;100815.16;5055115;28;20031;-90
2023/03/07 10:07:30;;;;;;;13.25;8.80;;;;;;;10.10;75.04;100806.28;5060827;28;20035;-90
2023/03/07 10:10:00;;;;;;;12.73;8.88;;;;;;;9.92;75.30;100774.81;5055408;28;20028;-91
2023/03/07 10:12:54;;;;;;;13.73;9.30;;;;;;;10.00;75.00;100789.19;5055520;28;20028;-89
2023/03/07 10:15:41;;;;;;;12.57;8.68;;;;;;;10.11;74.76;100798.50;5071717;28;20405;-88
2023/03/07 10:18:07;;;;;;;15.02;8.93;;;;;;;10.13;74.76;100796.88;5053343;28;20028;-90
2023/03/07 10:21:10;;;;;;;14.10;9.35;;;;;;;10.14;74.87;100796.09;5043877;28;20033;-89
2023/03/07 10:23:40;;;;;;;15.27;9.50;;;;;;;10.10;75.02;100785.41;5061902;28;20031;-89
2023/03/07 10:26:10;;;;;;;13.05;8.55;;;;;;;10.08;75.35;100782.72;5072516;28;20063;-90
2023/03/07 10:28:40;;;;;;;12.25;8.68;;;;;;;10.16;75.10;100783.16;5050172;28;20021;-87
2023/03/07 10:31:24;;;;;;;13.00;8.95;;;;;;;10.14;75.23;100775.22;5047781;28;20028;-89
2023/03/07 10:33:52;;;;;;;14.35;9.45;;;;;;;10.01;75.00;100745.75;5054975;28;20508;-89
2023/03/07 10:36:21;;;;;;;13.55;9.07;;;;;;;9.96;74.93;100738.56;5054628;28;20028;-89
2023/03/07 10:39:19;;;;;;;13.23;9.30;;;;;;;10.16;75.02;100760.56;5054665;28;20028;-88
2023/03/07 10:41:45;;;;;;;15.63;9.35;;;;;;;9.74;75.11;100689.53;5041772;28;20032;-88
2023/03/07 10:44:17;;;;;;;14.38;9.02;;;;;;;10.02;75.21;100724.06;5072170;28;20028;-90
2023/03/07 10:46:44;;;;;;;15.13;9.68;;;;;;;10.26;74.84;100755.81;5071029;28;20066;-89
2023/03/07 10:49:14;;;;;;;13.00;8.70;;;;;;;10.26;74.61;100755.81;5053115;28;20052;-90
2023/03/07 10:51:45;;;;;;;13.18;9.27;;;;;;;10.22;74.99;100751.25;5054588;28;20033;-90
2023/03/07 10:54:18;;;;;;;14.23;9.32;;;;;;;10.19;74.79;100744.16;5071738;28;20481;-89
2023/03/07 10:57:05;;;;;;;14.73;9.05;;;;;;;10.22;75.16;100746.03;5054184;28;20532;-89
2023/03/07 10:59:30;;;;;;;;;;;;;;;10.19;74.80;100744.16;5060263;28;20032;-90
2023/03/07 11:01:58;;;;;;;13.27;8.70;;;;;;;10.18;75.26;100737.13;5054478;28;19912;-89
2023/03/07 11:04:26;;;;;;;12.95;8.35;;;;;;;10.17;75.07;100733.63;5053845;28;20028;-90
2023/03/07 11:06:54;;;;;;;11.85;8.48;;;;;;;10.02;75.28;100708.41;5054487;28;20387;-90
2023/03/07 11:09:30;;;;;;;13.38;8.85;;;;;;;10.18;75.08;100727.63;5062900;28;20502;-85
2023/03/07 11:11:57;;;;;;;14.40;9.40;;;;;;;10.12;74.96;100721.16;5054296;28;20391;-89
2023/03/07 11:14:27;;;;;;;13.75;8.70;;;;;;;10.14;75.28;100717.81;5062469;28;20062;-90
2023/03/07 11:20:25;;;;;;;12.40;8.38;;;;;;;10.18;75.31;100717.19;5092536;28;20094;-89
2023/03/07 11:23:17;;;;;;;13.30;8.68;;;;;;;10.20;75.19;100714.63;5061247;28;20033;-90
2023/03/07 11:25:43;;;;;;;13.05;8.88;;;;;;;10.11;75.41;100688.03;5062224;28;20124;-89
2023/03/07 11:28:32;;;;;;;13.45;8.65;;;;;;;10.23;75.30;100703.47;5050155;28;20134;-91